Detailed System and Site Information

System Data Health
Measure Timestamp Ago Health
Web Server Live 14:58:52, 3rd March 2015 0 s health
Last live-data upload from local system (nw3) 14:58:52, 3rd March 2015 0 s health
Last upload of secondary data 14:00:26, 3rd March 2015 58 mins health
Latest Webcam upload 14:58:08, 3rd March 2015 44 s health
Last upload of 24hr data log 14:54:08, 3rd March 2015 5 mins health
Last full data process 14:55:02, 3rd March 2015 4 mins health
Last data downtime (>15 mins) 12:01:01, 24th February 2015 7 days
Local System and Site Information
Measure Value
WD Version & Build # 10.37R - 40
WD Start Time 12:11 24/02/15
WD Data Count 212198
WD Memory Use 74,660 K
--- ---
Windows Uptime 7 Days 1 Hours 50 Minutes 22 Seconds
Free System Memory 2532 MB (Max: 4GB)
--- ---
Station Altitude 57 m (187 ft)
Station Latitude 51.556
Station Longitude -0.154
Machine Room Conditions
Measure Value
Temperature 18.8 °C
Temperature Trend -0.3 °C /hr
Relative Humidity 33%
Dew Point 2.2 °C
--- ---
Tmin Today 17.9 °C at 06:48
Tmax Today 30.0 °C at 13:34
Hmin Today 32% at 00:00
Hmax Today 50% at 13:34
Tmin Yesterday 18.3 °C at 17:25
Tmax Yesterday 21.4 °C at 21:53

Site owner and administrator: Ben Lee-Rodgers (2010 - present)

Last 10hrs Temp/Hum for Secondary Sensor and Indoors

Extra Sensors/Indoor

Other

Raw METAR from EGLL (Heathrow)

EGLL 031450Z 27018KT 9999 FEW046 09/M02 Q1016 NOSIG
Decode Instructions
Source

WD Screenshot

not available